• Join FlightAware (Why Join?)
  • Login
  • US Flag 
Trick or treat! (Boo!!) 
08:10AM EDT


 

Airport Tracker/Info


-or-


 

Live Flight TrackerFlight Track Log ✈ EJA829P ✈ 26-Mar-2014 ✈ KERI - KSBN

Flight Track Log - Related Links

Times and Time Zones

All times are in EDT time to prevent confusion due to time zone crossing. See the EJA829P flight status page for this flight to view local times or setup timezone preferences in your user account.

Time Position Orientation Groundspeed Altitude Reporting Facility
EDT Latitude Longitude Course Direction KTS MPH feet Rate Location/Type
07:21AM 42.0544 -80.2458 264° West 216 249 3,200  Level Cleveland Center
07:22AM 42.0500 -80.3328 266° West 226 260 6,900 3,660 Climbing Cleveland Center
07:23AM 42.0500 -80.4219 270° West 248 285 10,800 4,140 Climbing Cleveland Center
07:24AM 42.0508 -80.5331 271° West 281 323 15,400 4,140 Climbing Cleveland Center
07:25AM 42.0469 -80.6464 267° West 287 330 19,400 3,240 Climbing Cleveland Center
07:26AM 42.0447 -80.7461 268° West 297 342 22,200 2,820 Climbing Cleveland Center
07:27AM 42.0731 -80.8333 264° West  Level FlightAware Approximate
07:27AM 42.0386 -80.8958 267° West 328 377 25,200  Level Cleveland Center
07:29AM 42.0347 -81.0194 268° West 335 386 27,600 1,320 Climbing Cleveland Center
07:30AM 42.0292 -81.1503 267° West 352 405 28,000 180 Climbing Cleveland Center
07:31AM 42.0231 -81.2853 267° West 360 414 28,000  Level Cleveland Center
07:32AM 42.0183 -81.4261 267° West 365 420 28,000  Level Cleveland Center
07:33AM 42.0125 -81.5519 266° West 340 391 28,000  Level Cleveland Center
07:34AM 42.0072 -81.6767 267° West 338 389 28,000  Level Cleveland Center
07:35AM 42.0008 -81.7989 266° West 333 383 28,000  Level Cleveland Center
07:36AM 41.9961 -81.9439 268° West 328 377 28,000  Level Cleveland Center
07:37AM 41.9892 -82.0644 266° West 325 374 28,000  Level Cleveland Center
07:38AM 41.9844 -82.1825 267° West 324 373 28,000  Level Cleveland Center
07:39AM 41.9778 -82.3011 266° West 321 369 28,000  Level Cleveland Center
07:40AM 41.9722 -82.4192 266° West 321 369 28,000  Level Cleveland Center
07:41AM 41.9658 -82.5375 266° West 320 368 28,000 -360 Level Cleveland Center
07:42AM 41.9597 -82.6556 266° West 319 367 27,300 -1,080 Descending Cleveland Center
07:43AM 41.9533 -82.7814 266° West 334 384 25,800 -1,620 Descending Cleveland Center
07:44AM 41.9450 -82.9331 266° West 338 389 24,100 -900 Descending Cleveland Center
07:45AM 41.9378 -83.0558 266° West 334 384 24,000 -60 Descending Cleveland Center
07:46AM 41.9314 -83.1767 266° West 327 376 24,000  Level Cleveland Center
07:47AM 41.9242 -83.2961 265° West 325 374 24,000  Level Cleveland Center
07:48AM 41.9169 -83.4142 265° West 321 369 24,000  Level Cleveland Center
07:49AM 41.9106 -83.5317 266° West 318 366 24,000  Level Cleveland Center
07:50AM 41.9031 -83.6500 265° West 318 366 24,000  Level Cleveland Center
07:51AM 41.8956 -83.7683 265° West 318 366 24,000  Level Cleveland Center
07:52AM 41.8867 -83.9103 265° West 318 366 24,000 -480 Level Cleveland Center
07:53AM 41.8786 -84.0292 265° West 318 366 23,100 -1,260 Descending Cleveland Center
07:54AM 41.8714 -84.1464 265° West 318 366 21,500 -1,500 Descending Cleveland Center
07:55AM 41.8642 -84.2619 265° West 316 364 20,100 -780 Descending Cleveland Center
07:56AM 41.8553 -84.3717 264° West 311 358 20,000 -60 Descending Cleveland Center
07:57AM 41.8464 -84.5081 265° West 310 357 20,000  Level Cleveland Center
07:58AM 41.8383 -84.6219 265° West 310 357 20,000 -780 Level Cleveland Center
07:59AM 41.8319 -84.7339 266° West 306 352 18,500 -1,320 Descending Cleveland Center
08:00AM 41.8231 -84.8497 264° West 308 354 17,300 -1,260 Descending Cleveland Center
08:01AM 41.8147 -84.9636 264° West 309 356 16,000 -660 Descending Cleveland Center
08:03AM 41.8067 -85.0747 264° West 307 353 16,000 -660 Level Cleveland Center
08:04AM 41.7961 -85.2242 265° West 294 338 14,500 -1,140 Descending Chicago Center
08:05AM 41.7881 -85.3317 264° West 294 338 13,500 -1,080 Descending Chicago Center
08:06AM 41.7797 -85.4361 264° West 291 335 12,400 -1,260 Descending Chicago Center
08:07AM 41.7717 -85.5378 264° West 282 325 11,000 -1,440 Descending Chicago Center
08:08AM 41.7642 -85.6297 264° West 252 290 9,500 -1,800 Descending Chicago Center
08:09AM 41.7556 -85.7347 264° West 242 278 7,400 -1,920 Descending Chicago Center
08:10AM 41.7489 -85.8225 264° West 241 277 5,600 -1,500 Descending Chicago Center
08:11AM 41.7403 -85.9075 262° West 237 273 4,300 -780 Descending Chicago Center
08:12AM 41.7303 -85.9897 261° West 231 266 4,000 -180 Descending Chicago Center
08:13AM 41.7211 -86.0706 261° West 225 259 4,000 -840 Level Chicago Center
08:14AM 41.7067 -86.1467 256° West 219 252 2,400 -1,020 Descending Chicago Center
08:15AM 41.7050 -86.2206 268° West 181 208 1,900 -540 Descending Chicago Center
08:16AM 41.7039 -86.2636 268° West 140 161 1,300 -480 Descending Chicago Center
08:17AM 41.7108 -86.2981 285° West 128 147 1,000 -300 Descending Chicago Center